• Join FlightAware (Why Join?)
  • Login
  • US Flag 
12:35PM EDT


 

Airport Tracker/Info


-or-


 

Live Flight TrackerFlight Track Log ✈ QFA465 ✈ 12-Mar-2012 ✈ YSSY / SYD - YMML / MEL

Flight Track Log - Related Links

Times and Time Zones

All times are in EDT time to prevent confusion due to time zone crossing. See the QFA465 flight status page for this flight to view local times or setup timezone preferences in your user account.

Time Position Orientation Groundspeed Altitude Reporting Facility
EDT Latitude Longitude Course Direction KTS MPH feet Rate Location/Type
04:41AM -34.9280 149.6172 233° Southwest  Level Estimated
04:42AM -34.9915 149.5139 233° Southwest  Level Estimated
04:43AM -35.0549 149.4105 233° Southwest  Level Estimated
04:44AM -35.1182 149.3070 233° Southwest  Level Estimated
04:45AM -35.1814 149.2032 233° Southwest  Level Estimated
04:46AM -35.2445 149.0993 233° Southwest  Level Estimated
04:47AM -35.3076 148.9953 233° Southwest  Level Estimated
04:48AM -35.3705 148.8911 234° Southwest  Level Estimated
04:49AM -35.4334 148.7867 234° Southwest  Level Estimated
04:50AM -35.4961 148.6822 234° Southwest  Level Estimated
04:51AM -35.5588 148.5775 234° Southwest  Level Estimated
04:52AM -35.6214 148.4726 234° Southwest  Level Estimated
04:53AM -35.6839 148.3676 234° Southwest  Level Estimated
04:54AM -35.7463 148.2624 234° Southwest  Level Estimated
04:55AM -35.8086 148.1570 234° Southwest  Level Estimated
04:56AM -35.8708 148.0515 234° Southwest  Level Estimated
04:57AM -35.9330 147.9458 234° Southwest  Level Estimated
04:58AM -35.9869 147.8537 234° Southwest  Level Estimated
04:59AM -36.0408 147.7616 234° Southwest  Level Estimated
05:00AM -36.0946 147.6693 234° Southwest  Level Estimated
05:01AM -36.1484 147.5768 234° Southwest  Level Estimated
05:02AM -36.2020 147.4843 234° Southwest  Level Estimated
05:03AM -36.2556 147.3916 234° Southwest  Level Estimated
05:04AM -36.3092 147.2988 234° Southwest  Level Estimated
05:05AM -36.3626 147.2059 235° Southwest  Level Estimated
05:06AM -36.4160 147.1128 235° Southwest  Level Estimated
05:07AM -36.4693 147.0196 235° Southwest  Level Estimated
05:08AM -36.5225 146.9263 235° Southwest  Level Estimated
05:09AM -36.5757 146.8329 235° Southwest  Level Estimated
05:10AM -36.6288 146.7393 235° Southwest  Level Estimated
05:11AM -36.6818 146.6456 235° Southwest  Level Estimated
05:12AM -36.7347 146.5518 235° Southwest  Level Estimated
05:13AM -36.7876 146.4578 235° Southwest  Level Estimated
05:14AM -36.8404 146.3637 235° Southwest  Level Estimated
05:15AM -36.8931 146.2695 235° Southwest  Level Estimated
05:16AM -36.9458 146.1752 235° Southwest  Level Estimated
05:17AM -36.9983 146.0807 235° Southwest  Level Estimated
05:18AM -37.0508 145.9861 235° Southwest  Level Estimated
05:19AM -37.1033 145.8913 235° Southwest  Level Estimated
05:20AM -37.1556 145.7965 235° Southwest  Level Estimated
05:21AM -37.2079 145.7015 235° Southwest  Level Estimated
05:22AM -37.2601 145.6063 235° Southwest  Level Estimated
05:23AM -37.3122 145.5111 236° Southwest  Level Estimated
05:24AM -37.3642 145.4157 236° Southwest  Level Estimated
05:25AM -37.4162 145.3201 236° Southwest  Level Estimated
05:26AM -37.4681 145.2245 236° Southwest  Level Estimated
05:27AM -37.5199 145.1287 236° Southwest  Level Estimated
05:28AM -37.5716 145.0327 236° Southwest  Level Estimated
05:29AM -37.6233 144.9367 236° Southwest  Level Estimated
05:30AM -37.6749 144.8405 56° Northeast  Level Estimated
05:31AM -37.6233 144.9367 236° Southwest  Level Estimated
05:32AM -37.6749 144.8405 56° Northeast  Level Estimated
05:33AM -37.6233 144.9367 236° Southwest  Level Estimated
05:34AM -37.6749 144.8405 56° Northeast  Level Estimated
05:35AM -37.6233 144.9367 236° Southwest  Level Estimated
05:36AM -37.6749 144.8405 56° Northeast  Level Estimated
05:37AM -37.6233 144.9367 236° Southwest  Level Estimated
05:38AM -37.6749 144.8405 56° Northeast  Level Estimated
05:39AM -37.6233 144.9367 236° Southwest  Level Estimated
05:40AM -37.6749 144.8405 56° Northeast  Level Estimated
05:41AM -37.6233 144.9367 236° Southwest  Level Estimated
05:42AM -37.6749 144.8405 56° Northeast  Level Estimated
05:43AM -37.6233 144.9367 236° Southwest  Level Estimated
05:44AM -37.6749 144.8405 56° Northeast  Level Estimated
05:45AM -37.6233 144.9367 236° Southwest  Level Estimated
05:46AM -37.6749 144.8405 56° Northeast  Level Estimated
05:47AM -37.6233 144.9367 236° Southwest  Level Estimated
05:48AM -37.6749 144.8405 56° Northeast  Level Estimated
05:49AM -37.6280 144.9278 236° Southwest  Level Estimated
05:50AM -37.6749 144.8405 56° Northeast  Level Estimated
05:51AM -37.6280 144.9278 236° Southwest  Level Estimated
05:52AM -37.6749 144.8405 56° Northeast  Level Estimated
05:53AM -37.6280 144.9278 236° Southwest  Level Estimated
05:54AM -37.6749 144.8405 56° Northeast  Level Estimated
05:55AM -37.6280 144.9278 236° Southwest  Level Estimated
05:56AM -37.6749 144.8405 56° Northeast  Level Estimated
05:57AM -37.6280 144.9278 56° Northeast  Level Estimated